sensor_id;sensor_type;location;lat;lon;timestamp;pressure;altitude;pressure_sealevel;temperature;humidity
58739;BME280;44512;53.046;18.604;2023-03-25T00:04:37;100386.03;;;12.42;59.19
58739;BME280;44512;53.046;18.604;2023-03-25T00:15:08;100397.95;;;12.41;59.29
58739;BME280;44512;53.046;18.604;2023-03-25T00:25:34;100412.77;;;12.38;59.22
58739;BME280;44512;53.046;18.604;2023-03-25T00:36:03;100410.65;;;12.15;59.69
58739;BME280;44512;53.046;18.604;2023-03-25T00:46:32;100385.54;;;11.88;60.65
58739;BME280;44512;53.046;18.604;2023-03-25T00:56:59;100402.72;;;11.69;61.44
58739;BME280;44512;53.046;18.604;2023-03-25T01:07:27;100388.94;;;11.70;61.73
58739;BME280;44512;53.046;18.604;2023-03-25T01:17:56;100386.47;;;11.69;61.85
58739;BME280;44512;53.046;18.604;2023-03-25T01:28:24;100371.85;;;11.70;61.82
58739;BME280;44512;53.046;18.604;2023-03-25T01:38:53;100371.45;;;11.66;61.74
58739;BME280;44512;53.046;18.604;2023-03-25T01:49:31;100363.58;;;11.52;62.03
58739;BME280;44512;53.046;18.604;2023-03-25T01:59:51;100361.51;;;11.54;61.89
58739;BME280;44512;53.046;18.604;2023-03-25T02:10:18;100368.18;;;11.51;61.96
58739;BME280;44512;53.046;18.604;2023-03-25T02:20:58;100359.86;;;11.46;62.03
58739;BME280;44512;53.046;18.604;2023-03-25T03:02:47;100333.32;;;11.10;63.47
58739;BME280;44512;53.046;18.604;2023-03-25T03:23:45;100323.53;;;11.09;63.56
58739;BME280;44512;53.046;18.604;2023-03-25T03:34:20;100331.66;;;11.09;63.20
58739;BME280;44512;53.046;18.604;2023-03-25T03:44:37;100335.84;;;11.05;63.09
58739;BME280;44512;53.046;18.604;2023-03-25T04:05:31;100340.07;;;10.74;63.90
58739;BME280;44512;53.046;18.604;2023-03-25T04:15:59;100353.42;;;10.56;64.43
58739;BME280;44512;53.046;18.604;2023-03-25T04:26:28;100364.66;;;10.53;64.64
58739;BME280;44512;53.046;18.604;2023-03-25T04:36:56;100380.91;;;10.39;65.12
58739;BME280;44512;53.046;18.604;2023-03-25T04:47:25;100378.77;;;10.22;65.79
58739;BME280;44512;53.046;18.604;2023-03-25T04:57:53;100392.69;;;10.12;66.24
58739;BME280;44512;53.046;18.604;2023-03-25T05:08:21;100382.09;;;10.04;66.59
58739;BME280;44512;53.046;18.604;2023-03-25T05:18:49;100375.41;;;10.00;66.66
58739;BME280;44512;53.046;18.604;2023-03-25T05:29:17;100372.09;;;9.98;66.75
58739;BME280;44512;53.046;18.604;2023-03-25T05:39:46;100380.60;;;10.01;66.93
58739;BME280;44512;53.046;18.604;2023-03-25T05:50:14;100385.20;;;10.01;67.12
58739;BME280;44512;53.046;18.604;2023-03-25T06:00:43;100399.74;;;10.00;67.43
58739;BME280;44512;53.046;18.604;2023-03-25T06:11:11;100398.70;;;9.94;67.79
58739;BME280;44512;53.046;18.604;2023-03-25T06:21:39;100408.69;;;9.94;67.97
58739;BME280;44512;53.046;18.604;2023-03-25T06:32:10;100390.80;;;9.93;68.06
58739;BME280;44512;53.046;18.604;2023-03-25T06:42:36;100373.76;;;9.99;68.25
58739;BME280;44512;53.046;18.604;2023-03-25T06:53:05;100374.80;;;10.11;68.15
58739;BME280;44512;53.046;18.604;2023-03-25T07:03:35;100379.23;;;10.25;68.16
58739;BME280;44512;53.046;18.604;2023-03-25T07:14:01;100384.23;;;10.41;67.79
58739;BME280;44512;53.046;18.604;2023-03-25T07:24:30;100386.74;;;10.50;67.47
58739;BME280;44512;53.046;18.604;2023-03-25T07:34:58;100389.23;;;10.58;67.47
58739;BME280;44512;53.046;18.604;2023-03-25T07:45:26;100386.72;;;10.63;67.28
58739;BME280;44512;53.046;18.604;2023-03-25T07:55:55;100385.48;;;10.72;67.32
58739;BME280;44512;53.046;18.604;2023-03-25T08:06:23;100385.45;;;10.85;67.22
58739;BME280;44512;53.046;18.604;2023-03-25T08:16:52;100367.95;;;10.94;67.08
58739;BME280;44512;53.046;18.604;2023-03-25T08:27:20;100390.41;;;11.08;67.00
58739;BME280;44512;53.046;18.604;2023-03-25T08:37:49;100362.90;;;11.18;66.14
58739;BME280;44512;53.046;18.604;2023-03-25T08:48:17;100368.70;;;11.28;65.88
58739;BME280;44512;53.046;18.604;2023-03-25T08:58:45;100378.67;;;11.34;65.38
58739;BME280;44512;53.046;18.604;2023-03-25T09:09:15;100367.80;;;11.41;65.38
58739;BME280;44512;53.046;18.604;2023-03-25T09:19:42;100360.27;;;11.50;65.33
58739;BME280;44512;53.046;18.604;2023-03-25T09:35:24;100353.95;;;11.62;64.43
58739;BME280;44512;53.046;18.604;2023-03-25T09:45:54;100354.95;;;11.68;64.00
58739;BME280;44512;53.046;18.604;2023-03-25T09:56:23;100357.84;;;11.73;64.47
58739;BME280;44512;53.046;18.604;2023-03-25T10:17:29;100342.37;;;11.87;63.92
58739;BME280;44512;53.046;18.604;2023-03-25T10:27:52;100347.15;;;11.91;64.08
58739;BME280;44512;53.046;18.604;2023-03-25T10:38:17;100336.06;;;11.93;64.03
58739;BME280;44512;53.046;18.604;2023-03-25T10:48:44;100327.05;;;11.99;63.59
58739;BME280;44512;53.046;18.604;2023-03-25T10:59:18;100332.88;;;12.03;63.41
58739;BME280;44512;53.046;18.604;2023-03-25T11:09:39;100329.56;;;12.01;64.92
58739;BME280;44512;53.046;18.604;2023-03-25T11:20:17;100322.31;;;11.94;65.58
58739;BME280;44512;53.046;18.604;2023-03-25T11:30:36;100306.69;;;11.90;64.61
58739;BME280;44512;53.046;18.604;2023-03-25T11:41:05;100298.33;;;11.91;64.22
58739;BME280;44512;53.046;18.604;2023-03-25T11:51:33;100287.05;;;11.94;63.71
58739;BME280;44512;53.046;18.604;2023-03-25T12:02:48;100278.63;;;12.03;63.11
58739;BME280;44512;53.046;18.604;2023-03-25T12:44:06;100215.95;;;12.54;59.24
58739;BME280;44512;53.046;18.604;2023-03-25T12:54:36;100216.46;;;12.81;58.25
58739;BME280;44512;53.046;18.604;2023-03-25T13:05:02;100197.71;;;13.10;56.46
58739;BME280;44512;53.046;18.604;2023-03-25T13:15:24;100223.07;;;13.22;55.32
58739;BME280;44512;53.046;18.604;2023-03-25T13:36:25;100254.31;;;12.14;60.24
58739;BME280;44512;53.046;18.604;2023-03-25T13:47:04;100226.68;;;11.74;62.57
58739;BME280;44512;53.046;18.604;2023-03-25T14:18:16;100204.10;;;11.80;66.01
58739;BME280;44512;53.046;18.604;2023-03-25T14:28:43;100211.98;;;11.88;65.62
58739;BME280;44512;53.046;18.604;2023-03-25T15:00:06;100249.41;;;12.05;65.37
58739;BME280;44512;53.046;18.604;2023-03-25T15:10:42;100246.87;;;12.10;65.72
58739;BME280;44512;53.046;18.604;2023-03-25T15:21:09;100234.66;;;12.19;65.73
58739;BME280;44512;53.046;18.604;2023-03-25T16:13:22;100229.12;;;12.32;64.78
58739;BME280;44512;53.046;18.604;2023-03-25T16:23:55;100237.09;;;12.27;63.07
58739;BME280;44512;53.046;18.604;2023-03-25T16:34:19;100237.18;;;12.20;61.95
58739;BME280;44512;53.046;18.604;2023-03-25T16:44:47;100240.75;;;12.14;61.72
58739;BME280;44512;53.046;18.604;2023-03-25T17:05:51;100250.51;;;11.97;59.34
58739;BME280;44512;53.046;18.604;2023-03-25T17:16:12;100259.36;;;11.86;58.81
58739;BME280;44512;53.046;18.604;2023-03-25T17:37:11;100284.74;;;11.60;59.11
58739;BME280;44512;53.046;18.604;2023-03-25T17:47:37;100296.47;;;11.47;59.72
58739;BME280;44512;53.046;18.604;2023-03-25T17:58:07;100290.87;;;11.42;60.13
58739;BME280;44512;53.046;18.604;2023-03-25T18:08:34;100294.68;;;11.34;60.57
58739;BME280;44512;53.046;18.604;2023-03-25T18:19:03;100316.17;;;11.29;61.00
58739;BME280;44512;53.046;18.604;2023-03-25T18:29:31;100319.29;;;11.26;61.05
58739;BME280;44512;53.046;18.604;2023-03-25T18:39:59;100314.13;;;11.18;60.87
58739;BME280;44512;53.046;18.604;2023-03-25T18:50:37;100298.09;;;11.16;60.53
58739;BME280;44512;53.046;18.604;2023-03-25T19:00:57;100292.46;;;11.18;60.44
58739;BME280;44512;53.046;18.604;2023-03-25T19:11:25;100284.34;;;11.18;60.37
58739;BME280;44512;53.046;18.604;2023-03-25T19:21:53;100284.11;;;11.19;60.63
58739;BME280;44512;53.046;18.604;2023-03-25T19:32:21;100287.46;;;11.15;60.63
58739;BME280;44512;53.046;18.604;2023-03-25T19:42:53;100262.13;;;10.89;60.83
58739;BME280;44512;53.046;18.604;2023-03-25T19:53:18;100268.85;;;10.74;60.85
58739;BME280;44512;53.046;18.604;2023-03-25T20:03:46;100260.56;;;10.62;60.87
58739;BME280;44512;53.046;18.604;2023-03-25T20:14:15;100255.16;;;10.49;61.41
58739;BME280;44512;53.046;18.604;2023-03-25T20:24:44;100233.33;;;10.43;61.59
58739;BME280;44512;53.046;18.604;2023-03-25T20:35:12;100234.80;;;10.46;61.16
58739;BME280;44512;53.046;18.604;2023-03-25T20:45:40;100249.76;;;10.49;60.76
58739;BME280;44512;53.046;18.604;2023-03-25T20:56:08;100263.95;;;10.44;61.68
58739;BME280;44512;53.046;18.604;2023-03-25T21:06:37;100272.70;;;10.39;61.49
58739;BME280;44512;53.046;18.604;2023-03-25T21:17:05;100274.55;;;10.32;62.03
58739;BME280;44512;53.046;18.604;2023-03-25T21:27:33;100263.13;;;10.24;62.65
58739;BME280;44512;53.046;18.604;2023-03-25T21:38:02;100259.77;;;10.15;63.23
58739;BME280;44512;53.046;18.604;2023-03-25T21:48:30;100259.56;;;10.10;63.47
58739;BME280;44512;53.046;18.604;2023-03-25T21:58:58;100248.12;;;10.01;63.64
58739;BME280;44512;53.046;18.604;2023-03-25T22:09:26;100245.64;;;9.93;63.87
58739;BME280;44512;53.046;18.604;2023-03-25T22:19:55;100242.93;;;10.00;63.91
58739;BME280;44512;53.046;18.604;2023-03-25T22:30:23;100230.24;;;10.00;63.61
58739;BME280;44512;53.046;18.604;2023-03-25T22:40:51;100245.02;;;10.04;63.46
58739;BME280;44512;53.046;18.604;2023-03-25T22:51:20;100239.40;;;9.93;63.65
58739;BME280;44512;53.046;18.604;2023-03-25T23:01:48;100234.20;;;9.84;63.84
58739;BME280;44512;53.046;18.604;2023-03-25T23:12:22;100239.18;;;9.74;64.13
58739;BME280;44512;53.046;18.604;2023-03-25T23:22:45;100231.90;;;9.68;64.34
58739;BME280;44512;53.046;18.604;2023-03-25T23:33:13;100222.75;;;9.62;64.43
58739;BME280;44512;53.046;18.604;2023-03-25T23:43:42;100214.62;;;9.56;64.55
58739;BME280;44512;53.046;18.604;2023-03-25T23:54:12;100221.89;;;9.49;64.88
